Swamp Rd, Vermont
Current Conditions -  °F | °C
As of 1:51 AM on Sunday 26 Oct 2014 (Local Time) from KMPV Reporting Station
Broken Clouds Broken Clouds  
Wind Chill: 46°   Ceiling: 7500
Heat Index: 48°   Visibility: 10mi
Dew Point: 42°   Wind: 5mph
Humidity: 80%   Direction: 250°WSW
Pressure: 29.45"   Gusts: NA
Location:  44.2289°N, 72.124°W
Report Text: KMPV 260551Z AUTO 25004KT 10SM BKN075 09/06 A2945 RMK AO2 SLP976 60010 T00890056 10106 20072 58015 $
Loading
Personal Weather Stations






























Interactive Weather Map
Tropical Storm Tracking
New forecast layout! Learn more

10-Day Weather Forecast

Advertisements
Track Severe Weather on mobile